Time;durP1;ratioP1;P1;durP2;ratioP2;P2;SDS_P1;SDS_P2;PMS_P1;PMS_P2;Temp;Humidity;BMP_temperature;BMP_pressure;BME280_temperature;BME280_humidity;BME280_pressure;Samples;Min_cycle;Max_cycle;Signal;HPM_P1;HPM_P2
2021/10/23 00:00:22;;;;;;;;;;;6.90;99.90;;;;;;5115195;28;19963;-55
2021/10/23 00:02:47;;;;;;;;;;;7.00;99.90;;;;;;5115301;28;19999;-55
2021/10/23 00:05:13;;;;;;;;;;;7.10;99.90;;;;;;5114410;28;19916;-56
2021/10/23 00:07:38;;;;;;;;;;;7.10;99.90;;;;;;5115216;28;19920;-55
2021/10/23 00:10:04;;;;;;;;;;;7.20;99.90;;;;;;5115227;28;19923;-56
2021/10/23 00:12:30;;;;;;;;;;;7.20;99.90;;;;;;5115142;28;19968;-56
2021/10/23 00:14:57;;;;;;;;;;;7.30;99.90;;;;;;5114950;28;19968;-56
2021/10/23 00:17:23;;;;;;;;;;;7.30;99.90;;;;;;5115192;28;20342;-55
2021/10/23 00:19:49;;;;;;;;;;;7.30;99.90;;;;;;5114908;28;19923;-55
2021/10/23 00:22:14;;;;;;;;;;;7.30;99.90;;;;;;5114972;28;19939;-55
2021/10/23 00:24:40;;;;;;;;;;;7.30;99.90;;;;;;5115126;28;19938;-55
2021/10/23 00:27:06;;;;;;;;;;;7.40;99.90;;;;;;5115028;28;19923;-56
2021/10/23 00:29:31;;;;;;;;;;;7.30;99.90;;;;;;5114731;28;19922;-55
2021/10/23 00:31:57;;;;;;;;;;;7.30;99.90;;;;;;5096305;28;19922;-55
2021/10/23 00:34:23;;;;;;;;;;;7.30;99.90;;;;;;5114586;28;19920;-55
2021/10/23 00:36:49;;;;;;;;;;;7.30;99.90;;;;;;5114630;28;19919;-55
2021/10/23 00:39:14;;;;;;;;;;;7.30;99.90;;;;;;5114535;28;19920;-55
2021/10/23 00:41:41;;;;;;;;;;;7.30;99.90;;;;;;5114635;28;19916;-56
2021/10/23 00:44:26;;;;;;;;;;;7.30;99.90;;;;;;5114472;28;19916;-55
2021/10/23 00:46:51;;;;;;;;;;;7.30;99.90;;;;;;5114561;28;19915;-55
2021/10/23 00:49:17;;;;;;;;;;;7.30;99.90;;;;;;5114517;28;19916;-55
2021/10/23 00:51:42;;;;;;;;;;;7.30;99.90;;;;;;5114333;28;20255;-55
2021/10/23 00:54:09;;;;;;;;;;;7.30;99.90;;;;;;5114308;28;19927;-56
2021/10/23 00:56:34;;;;;;;;;;;7.30;99.90;;;;;;5114261;28;19915;-56
2021/10/23 00:59:00;;;;;;;;;;;7.30;99.90;;;;;;5114130;28;19928;-55
2021/10/23 01:01:25;;;;;;;;;;;7.30;99.90;;;;;;5114396;28;19919;-55
2021/10/23 01:03:51;;;;;;;;;;;7.20;99.90;;;;;;5114395;28;19926;-55
2021/10/23 01:06:16;;;;;;;;;;;7.20;99.90;;;;;;5114005;28;20357;-54
2021/10/23 01:08:42;;;;;;;;;;;7.10;99.90;;;;;;5114109;28;19915;-55
2021/10/23 01:11:07;;;;;;;;;;;7.10;99.90;;;;;;5095720;28;19920;-55
2021/10/23 01:13:33;;;;;;;;;;;7.10;99.90;;;;;;5114050;28;19962;-54
2021/10/23 01:15:59;;;;;;;;;;;7.10;99.90;;;;;;5113826;28;19943;-55
2021/10/23 01:18:24;;;;;;;;;;;7.10;99.90;;;;;;5112650;28;19927;-55
2021/10/23 01:20:50;;;;;;;;;;;7.00;99.90;;;;;;5113860;28;19916;-55
2021/10/23 01:23:15;;;;;;;;;;;7.00;99.90;;;;;;5113730;28;19920;-55
2021/10/23 01:25:41;;;;;;;;;;;7.00;99.90;;;;;;5113672;28;19923;-55
2021/10/23 01:28:06;;;;;;;;;;;7.00;99.90;;;;;;5113764;28;19916;-55
2021/10/23 01:30:32;;;;;;;;;;;6.90;99.90;;;;;;5113653;28;20357;-55
2021/10/23 01:32:59;;;;;;;;;;;6.90;99.90;;;;;;5113664;28;20013;-55
2021/10/23 01:35:25;;;;;;;;;;;6.90;99.90;;;;;;5113469;28;19927;-55
2021/10/23 01:37:51;;;;;;;;;;;6.90;99.90;;;;;;5113351;28;20285;-55
2021/10/23 01:40:18;;;;;;;;;;;6.90;99.90;;;;;;5113425;28;19923;-54
2021/10/23 01:42:44;;;;;;;;;;;6.90;99.90;;;;;;5113537;28;19927;-55
2021/10/23 01:45:10;;;;;;;;;;;6.80;99.90;;;;;;5113743;28;20010;-56
2021/10/23 01:47:39;;;;;;;;;;;6.80;99.90;;;;;;5113471;28;19915;-56
2021/10/23 01:50:25;;;;;;;;;;;6.80;99.90;;;;;;5113279;28;19920;-55
2021/10/23 01:52:51;;;;;;;;;;;6.80;99.90;;;;;;5112489;28;19915;-55
2021/10/23 01:55:17;;;;;;;;;;;6.80;99.90;;;;;;5113221;28;20264;-56
2021/10/23 01:57:43;;;;;;;;;;;6.80;99.90;;;;;;5113339;28;19981;-56
2021/10/23 02:00:10;;;;;;;;;;;6.90;99.90;;;;;;5112964;28;19965;-55
2021/10/23 02:02:35;;;;;;;;;;;6.90;99.90;;;;;;5113065;28;19916;-56
2021/10/23 02:05:01;;;;;;;;;;;7.00;99.90;;;;;;5112911;28;19915;-56
2021/10/23 02:07:26;;;;;;;;;;;7.10;99.90;;;;;;5112851;28;19916;-55
2021/10/23 02:09:52;;;;;;;;;;;7.10;99.90;;;;;;5113090;28;20372;-56
2021/10/23 02:12:18;;;;;;;;;;;7.00;99.90;;;;;;5094594;28;19919;-55
2021/10/23 02:14:43;;;;;;;;;;;7.10;99.90;;;;;;5113153;28;19922;-56
2021/10/23 02:17:09;;;;;;;;;;;7.00;99.90;;;;;;5112788;28;19915;-55
2021/10/23 02:19:34;;;;;;;;;;;7.10;99.90;;;;;;5112785;28;19927;-55
2021/10/23 02:22:00;;;;;;;;;;;7.00;99.90;;;;;;5112823;28;19915;-55
2021/10/23 02:24:25;;;;;;;;;;;7.00;99.90;;;;;;5112656;28;19915;-55
2021/10/23 02:26:51;;;;;;;;;;;7.00;99.90;;;;;;5112880;28;19916;-56
2021/10/23 02:29:16;;;;;;;;;;;6.90;99.90;;;;;;5112607;28;19926;-55
2021/10/23 02:31:42;;;;;;;;;;;6.90;99.90;;;;;;5112949;28;19923;-55
2021/10/23 02:34:08;;;;;;;;;;;6.90;99.90;;;;;;5112441;28;19923;-55
2021/10/23 02:36:33;;;;;;;;;;;6.80;99.90;;;;;;5112648;28;19922;-56
2021/10/23 02:38:59;;;;;;;;;;;6.80;99.90;;;;;;5112550;28;19926;-55
2021/10/23 02:41:25;;;;;;;;;;;6.80;99.90;;;;;;5112627;28;19917;-55
2021/10/23 02:43:51;;;;;;;;;;;6.80;99.90;;;;;;5112691;28;19922;-55
2021/10/23 02:46:17;;;;;;;;;;;6.80;99.90;;;;;;5112534;28;20387;-55
2021/10/23 02:48:43;;;;;;;;;;;6.80;99.90;;;;;;5112423;28;19966;-55
2021/10/23 02:51:08;;;;;;;;;;;6.70;99.90;;;;;;5112402;28;19959;-55
2021/10/23 02:53:34;;;;;;;;;;;6.70;99.90;;;;;;5112430;28;19919;-56
2021/10/23 02:56:00;;;;;;;;;;;6.80;99.90;;;;;;5112480;28;19916;-55
2021/10/23 02:58:25;;;;;;;;;;;6.80;99.90;;;;;;5112364;28;19923;-55
2021/10/23 03:00:51;;;;;;;;;;;6.80;99.90;;;;;;5112460;28;20389;-55
2021/10/23 03:03:16;;;;;;;;;;;6.90;99.90;;;;;;5112373;28;20280;-55
2021/10/23 03:05:42;;;;;;;;;;;6.80;99.90;;;;;;5112257;28;19967;-56
2021/10/23 03:08:08;;;;;;;;;;;6.90;99.90;;;;;;5112492;28;19945;-56
2021/10/23 03:10:33;;;;;;;;;;;6.90;99.90;;;;;;5112771;28;19920;-55
2021/10/23 03:12:59;;;;;;;;;;;7.00;99.90;;;;;;5112318;28;19915;-55
2021/10/23 03:15:25;;;;;;;;;;;7.00;99.90;;;;;;5112343;28;19923;-55
2021/10/23 03:17:51;;;;;;;;;;;7.10;99.90;;;;;;5094528;28;19922;-56
2021/10/23 03:20:16;;;;;;;;;;;7.10;99.90;;;;;;5112030;28;19920;-55
2021/10/23 03:22:42;;;;;;;;;;;7.20;99.90;;;;;;5112201;28;19959;-55
2021/10/23 03:25:08;;;;;;;;;;;7.30;99.90;;;;;;5112333;28;20018;-55
2021/10/23 03:27:37;;;;;;;;;;;7.30;99.90;;;;;;5112375;28;20019;-55
2021/10/23 03:30:03;;;;;;;;;;;7.30;99.90;;;;;;5112207;28;19922;-55
2021/10/23 03:32:29;;;;;;;;;;;7.40;99.90;;;;;;5112118;28;19919;-56
2021/10/23 03:34:59;;;;;;;;;;;7.50;99.90;;;;;;5111630;28;19977;-55
2021/10/23 03:37:27;;;;;;;;;;;7.50;99.90;;;;;;5112247;28;19916;-55
2021/10/23 03:39:53;;;;;;;;;;;7.60;99.90;;;;;;5093914;28;19968;-55
2021/10/23 03:42:18;;;;;;;;;;;7.60;99.90;;;;;;5115715;28;19920;-55
2021/10/23 03:44:43;;;;;;;;;;;7.60;99.90;;;;;;5115738;28;19915;-55
2021/10/23 03:47:10;;;;;;;;;;;7.60;99.90;;;;;;5115586;28;20289;-55
2021/10/23 03:49:36;;;;;;;;;;;7.70;99.90;;;;;;5115370;28;20418;-55
2021/10/23 03:52:01;;;;;;;;;;;7.70;99.90;;;;;;5115374;28;19920;-55
2021/10/23 03:54:27;;;;;;;;;;;7.60;99.90;;;;;;5115572;28;19961;-55
2021/10/23 03:56:52;;;;;;;;;;;7.70;99.90;;;;;;5115412;28;19916;-55
2021/10/23 03:59:18;;;;;;;;;;;7.70;99.90;;;;;;5115403;28;20018;-55
2021/10/23 04:01:45;;;;;;;;;;;7.80;99.90;;;;;;5115212;28;20337;-55
2021/10/23 04:04:10;;;;;;;;;;;7.80;99.90;;;;;;5115257;28;19936;-55
2021/10/23 04:06:36;;;;;;;;;;;7.90;99.90;;;;;;5115424;28;19916;-55
2021/10/23 04:09:02;;;;;;;;;;;7.90;99.90;;;;;;5115646;28;19919;-55
2021/10/23 04:11:27;;;;;;;;;;;7.80;99.90;;;;;;5115581;28;20360;-55
2021/10/23 04:13:52;;;;;;;;;;;7.80;99.90;;;;;;5115186;28;19915;-55
2021/10/23 04:16:18;;;;;;;;;;;7.80;99.90;;;;;;5115105;28;19942;-55
2021/10/23 04:18:43;;;;;;;;;;;7.70;99.90;;;;;;5114811;28;20354;-54
2021/10/23 04:21:13;;;;;;;;;;;7.70;99.90;;;;;;5114910;28;19956;-55
2021/10/23 04:23:38;;;;;;;;;;;7.70;99.90;;;;;;5115104;28;19923;-55
2021/10/23 04:26:04;;;;;;;;;;;7.70;99.90;;;;;;5114874;28;20384;-55
2021/10/23 04:28:30;;;;;;;;;;;7.70;99.90;;;;;;5114723;28;19937;-55
2021/10/23 04:30:55;;;;;;;;;;;7.80;99.90;;;;;;5114771;28;19923;-55
2021/10/23 04:33:21;;;;;;;;;;;7.70;99.90;;;;;;5114672;28;19916;-54
2021/10/23 04:35:46;;;;;;;;;;;7.70;99.90;;;;;;5114387;28;19920;-55
2021/10/23 04:38:12;;;;;;;;;;;7.70;99.90;;;;;;5114731;28;19916;-55
2021/10/23 04:40:38;;;;;;;;;;;7.80;99.90;;;;;;5114518;28;20086;-55
2021/10/23 04:43:04;;;;;;;;;;;7.80;99.90;;;;;;5114443;28;19932;-55
2021/10/23 04:45:30;;;;;;;;;;;7.70;99.90;;;;;;5114400;28;19915;-56
2021/10/23 04:47:55;;;;;;;;;;;7.80;99.90;;;;;;5114360;28;19916;-55
2021/10/23 04:50:21;;;;;;;;;;;7.70;99.90;;;;;;5114609;28;19950;-56
2021/10/23 04:52:46;;;;;;;;;;;7.70;99.90;;;;;;5114446;28;19919;-55
2021/10/23 04:55:12;;;;;;;;;;;7.70;99.90;;;;;;5114732;28;20256;-55
2021/10/23 04:57:37;;;;;;;;;;;7.70;99.90;;;;;;5114288;28;19916;-55
2021/10/23 05:00:03;;;;;;;;;;;7.70;99.90;;;;;;5114106;28;19920;-56
2021/10/23 05:02:29;;;;;;;;;;;7.70;99.90;;;;;;5114380;28;19916;-55
2021/10/23 05:04:54;;;;;;;;;;;7.70;99.90;;;;;;5114034;28;20377;-55
2021/10/23 05:07:20;;;;;;;;;;;7.70;99.90;;;;;;5114191;28;19922;-55
2021/10/23 05:09:45;;;;;;;;;;;7.70;99.90;;;;;;5114009;28;19916;-55
2021/10/23 05:12:11;;;;;;;;;;;7.60;99.90;;;;;;5114101;28;19916;-55
2021/10/23 05:14:36;;;;;;;;;;;7.60;99.90;;;;;;5113920;28;19916;-55
2021/10/23 05:17:02;;;;;;;;;;;7.50;99.90;;;;;;5113757;28;19922;-55
2021/10/23 05:19:28;;;;;;;;;;;7.50;99.90;;;;;;5113876;28;19929;-55
2021/10/23 05:21:53;;;;;;;;;;;7.50;99.90;;;;;;5113840;28;20361;-55
2021/10/23 05:24:19;;;;;;;;;;;7.50;99.90;;;;;;5113776;28;19915;-55
2021/10/23 05:26:44;;;;;;;;;;;7.40;99.90;;;;;;5113561;28;20369;-56
2021/10/23 05:29:10;;;;;;;;;;;7.40;99.90;;;;;;5113799;28;19952;-55
2021/10/23 05:31:35;;;;;;;;;;;7.40;99.90;;;;;;5113634;28;19940;-55
2021/10/23 05:34:01;;;;;;;;;;;7.40;99.90;;;;;;5113661;28;20006;-56
2021/10/23 05:36:27;;;;;;;;;;;7.30;99.90;;;;;;5113412;28;19916;-55
2021/10/23 05:38:52;;;;;;;;;;;7.30;99.90;;;;;;5113569;28;19920;-55
2021/10/23 05:41:18;;;;;;;;;;;7.20;99.90;;;;;;5113210;28;20380;-55
2021/10/23 05:43:43;;;;;;;;;;;7.20;99.90;;;;;;5113466;28;19916;-55
2021/10/23 05:46:09;;;;;;;;;;;7.20;99.90;;;;;;5113246;28;19921;-55
2021/10/23 05:48:34;;;;;;;;;;;7.20;99.90;;;;;;5113516;28;20311;-55
2021/10/23 05:51:00;;;;;;;;;;;7.10;99.90;;;;;;5113294;28;19915;-56
2021/10/23 05:53:26;;;;;;;;;;;7.10;99.90;;;;;;5113332;28;19959;-55
2021/10/23 05:55:51;;;;;;;;;;;7.10;99.90;;;;;;5113289;28;19950;-56
2021/10/23 05:58:17;;;;;;;;;;;7.00;99.90;;;;;;5112985;28;20266;-55
2021/10/23 06:00:49;;;;;;;;;;;6.90;99.90;;;;;;5112939;28;19915;-55
2021/10/23 06:03:18;;;;;;;;;;;6.90;99.90;;;;;;5112472;28;19923;-55
2021/10/23 06:05:44;;;;;;;;;;;6.90;99.90;;;;;;5113107;28;19923;-55
2021/10/23 06:08:10;;;;;;;;;;;6.90;99.90;;;;;;5113003;28;19919;-55
2021/10/23 06:10:35;;;;;;;;;;;7.00;99.90;;;;;;5113048;28;19923;-55
2021/10/23 06:13:01;;;;;;;;;;;6.90;99.90;;;;;;5112782;28;19922;-55
2021/10/23 06:15:26;;;;;;;;;;;6.90;99.90;;;;;;5112810;28;19916;-55
2021/10/23 06:17:52;;;;;;;;;;;6.90;99.90;;;;;;5094834;28;19923;-55
2021/10/23 06:20:17;;;;;;;;;;;6.90;99.90;;;;;;5112819;28;19971;-55
2021/10/23 06:22:50;;;;;;;;;;;6.90;99.90;;;;;;5112923;28;20367;-55
2021/10/23 06:25:17;;;;;;;;;;;6.90;99.90;;;;;;5112719;28;20270;-56
2021/10/23 06:27:43;;;;;;;;;;;7.00;99.90;;;;;;5112588;28;20006;-55
2021/10/23 06:30:09;;;;;;;;;;;7.00;99.90;;;;;;5112626;28;20007;-55
2021/10/23 06:32:42;;;;;;;;;;;7.00;99.90;;;;;;5112683;28;20001;-55
2021/10/23 06:35:08;;;;;;;;;;;7.00;99.90;;;;;;5112532;28;20064;-55
2021/10/23 06:37:33;;;;;;;;;;;7.00;99.90;;;;;;5112603;28;19998;-55
2021/10/23 06:39:59;;;;;;;;;;;7.10;99.90;;;;;;5112448;28;19919;-55
2021/10/23 06:42:24;;;;;;;;;;;7.10;99.90;;;;;;5112471;28;19922;-55
2021/10/23 06:44:50;;;;;;;;;;;7.20;99.90;;;;;;5112471;28;19920;-55
2021/10/23 06:47:15;;;;;;;;;;;7.20;99.90;;;;;;5112695;28;19980;-56
2021/10/23 06:49:41;;;;;;;;;;;7.20;99.90;;;;;;5112545;28;19916;-56
2021/10/23 06:52:06;;;;;;;;;;;7.30;99.90;;;;;;5112867;28;19926;-56
2021/10/23 06:54:32;;;;;;;;;;;7.30;99.90;;;;;;5112392;28;19916;-56
2021/10/23 06:56:58;;;;;;;;;;;7.30;99.90;;;;;;5112366;28;19919;-56
2021/10/23 06:59:23;;;;;;;;;;;7.40;99.90;;;;;;5112572;28;20032;-56
2021/10/23 07:01:49;;;;;;;;;;;7.40;99.90;;;;;;5112400;28;20327;-56
2021/10/23 07:04:14;;;;;;;;;;;7.50;99.90;;;;;;5112380;28;19923;-56
2021/10/23 07:06:40;;;;;;;;;;;7.50;99.90;;;;;;5112407;28;19916;-56
2021/10/23 07:09:05;;;;;;;;;;;7.60;99.90;;;;;;5112338;28;20341;-56
2021/10/23 07:11:31;;;;;;;;;;;7.60;99.90;;;;;;5112212;28;19915;-56
2021/10/23 07:13:56;;;;;;;;;;;7.70;99.90;;;;;;5112573;28;19959;-56
2021/10/23 07:16:22;;;;;;;;;;;7.70;99.90;;;;;;5116163;28;19915;-56
2021/10/23 07:18:47;;;;;;;;;;;7.70;99.90;;;;;;5097925;28;19919;-57
2021/10/23 07:21:13;;;;;;;;;;;7.80;99.90;;;;;;5115988;28;20319;-55
2021/10/23 07:23:38;;;;;;;;;;;7.80;99.90;;;;;;5116175;28;19920;-55
2021/10/23 07:26:04;;;;;;;;;;;7.90;99.90;;;;;;5116265;28;19938;-54
2021/10/23 07:28:29;;;;;;;;;;;7.90;99.90;;;;;;5116027;28;19969;-54
2021/10/23 07:30:55;;;;;;;;;;;7.90;99.90;;;;;;5116132;28;20297;-54
2021/10/23 07:33:20;;;;;;;;;;;8.00;99.90;;;;;;5116053;28;20007;-55
2021/10/23 07:35:47;;;;;;;;;;;8.10;99.90;;;;;;5097459;28;19965;-54
2021/10/23 07:38:12;;;;;;;;;;;8.10;99.90;;;;;;5115869;28;19923;-54
2021/10/23 07:40:38;;;;;;;;;;;8.20;99.90;;;;;;5115597;28;19923;-55
2021/10/23 07:43:03;;;;;;;;;;;8.20;99.90;;;;;;5115874;28;19939;-55
2021/10/23 07:45:29;;;;;;;;;;;8.30;99.90;;;;;;5115798;28;19938;-55
2021/10/23 07:47:54;;;;;;;;;;;8.40;99.90;;;;;;5115780;28;19923;-55
2021/10/23 07:50:20;;;;;;;;;;;8.40;99.90;;;;;;5097354;28;19963;-55
2021/10/23 07:52:46;;;;;;;;;;;8.50;99.90;;;;;;5115444;28;20440;-55
2021/10/23 07:55:12;;;;;;;;;;;8.70;99.90;;;;;;5115437;28;20357;-55
2021/10/23 07:57:38;;;;;;;;;;;8.70;99.90;;;;;;5115562;28;19923;-55
2021/10/23 08:00:04;;;;;;;;;;;8.80;99.90;;;;;;5115525;28;20010;-55
2021/10/23 08:02:30;;;;;;;;;;;8.90;99.90;;;;;;5115494;28;20358;-56
2021/10/23 08:04:56;;;;;;;;;;;9.00;99.90;;;;;;5115190;28;20354;-55
2021/10/23 08:07:21;;;;;;;;;;;9.10;99.90;;;;;;5115618;28;19920;-55
2021/10/23 08:09:47;;;;;;;;;;;9.40;99.90;;;;;;5115133;28;19915;-55
2021/10/23 08:12:12;;;;;;;;;;;9.70;99.90;;;;;;5115125;28;19916;-56
2021/10/23 08:14:39;;;;;;;;;;;10.20;99.90;;;;;;5078984;28;19920;-55
2021/10/23 08:17:04;;;;;;;;;;;10.60;99.90;;;;;;5115130;28;19939;-55
2021/10/23 08:19:30;;;;;;;;;;;10.90;99.90;;;;;;5114826;28;19920;-55
2021/10/23 08:21:55;;;;;;;;;;;11.10;99.90;;;;;;5115152;28;20434;-55
2021/10/23 08:24:21;;;;;;;;;;;11.20;99.90;;;;;;5114816;28;19917;-55
2021/10/23 08:26:47;;;;;;;;;;;11.20;99.90;;;;;;5114177;28;20289;-56
2021/10/23 08:29:13;;;;;;;;;;;11.40;99.90;;;;;;5114850;28;19922;-56
2021/10/23 08:31:40;;;;;;;;;;;11.60;99.90;;;;;;5114872;28;20296;-56
2021/10/23 08:34:05;;;;;;;;;;;11.60;99.90;;;;;;5114636;28;19920;-55
2021/10/23 08:36:31;;;;;;;;;;;11.60;99.90;;;;;;5114599;28;19922;-56
2021/10/23 08:38:57;;;;;;;;;;;11.60;99.90;;;;;;5114445;28;19926;-56
2021/10/23 08:41:24;;;;;;;;;;;11.60;99.90;;;;;;5096487;28;19915;-56
2021/10/23 08:43:50;;;;;;;;;;;11.50;99.90;;;;;;5114749;28;19923;-56
2021/10/23 08:46:27;;;;;;;;;;;11.50;99.90;;;;;;5114634;28;19927;-56
2021/10/23 08:48:54;;;;;;;;;;;11.60;99.90;;;;;;5114543;28;19962;-55
2021/10/23 08:51:20;;;;;;;;;;;11.60;99.90;;;;;;5114361;28;20021;-55
2021/10/23 08:53:47;;;;;;;;;;;11.60;99.90;;;;;;5114347;28;19976;-56
2021/10/23 08:56:12;;;;;;;;;;;11.70;99.90;;;;;;5114490;28;19915;-56
2021/10/23 08:58:38;;;;;;;;;;;11.70;99.90;;;;;;5114117;28;19926;-56
2021/10/23 09:01:04;;;;;;;;;;;11.70;99.90;;;;;;5114331;28;19915;-56
2021/10/23 09:03:30;;;;;;;;;;;11.70;99.90;;;;;;5114272;28;19968;-56
2021/10/23 09:05:56;;;;;;;;;;;11.70;99.90;;;;;;5095853;28;20364;-56
2021/10/23 09:08:22;;;;;;;;;;;11.70;99.90;;;;;;5113914;28;19916;-56
2021/10/23 09:10:49;;;;;;;;;;;11.70;99.90;;;;;;5113837;28;20381;-55
2021/10/23 09:13:25;;;;;;;;;;;11.70;99.90;;;;;;5114215;28;20003;-56
2021/10/23 09:15:51;;;;;;;;;;;11.60;99.90;;;;;;5113994;28;19938;-56
2021/10/23 09:18:16;;;;;;;;;;;11.70;99.90;;;;;;5113798;28;20368;-56
2021/10/23 09:20:42;;;;;;;;;;;11.70;99.90;;;;;;5113715;28;20262;-56
2021/10/23 09:23:18;;;;;;;;;;;11.70;99.90;;;;;;5114091;28;20329;-56
2021/10/23 09:25:45;;;;;;;;;;;11.70;99.90;;;;;;5113848;28;20010;-56
2021/10/23 09:28:14;;;;;;;;;;;11.80;99.90;;;;;;5113681;28;19955;-55
2021/10/23 09:30:41;;;;;;;;;;;11.90;99.90;;;;;;5113816;28;20513;-56
2021/10/23 09:33:14;;;;;;;;;;;11.90;99.90;;;;;;5113790;28;19920;-56
2021/10/23 09:35:44;;;;;;;;;;;11.90;99.90;;;;;;5113471;28;20277;-55
2021/10/23 09:38:11;;;;;;;;;;;12.00;99.90;;;;;;5112679;28;19922;-56
2021/10/23 09:40:38;;;;;;;;;;;12.00;99.90;;;;;;5113213;28;20373;-56
2021/10/23 09:43:10;;;;;;;;;;;12.10;99.90;;;;;;5113445;28;19916;-56
2021/10/23 09:45:37;;;;;;;;;;;12.20;99.90;;;;;;5113300;28;19916;-56
2021/10/23 09:48:07;;;;;;;;;;;12.20;99.90;;;;;;5113552;28;19915;-56
2021/10/23 09:50:32;;;;;;;;;;;12.30;99.90;;;;;;5113414;28;19961;-56
2021/10/23 09:53:01;;;;;;;;;;;12.40;99.90;;;;;;5113138;28;19924;-56
2021/10/23 09:55:28;;;;;;;;;;;12.40;99.90;;;;;;5113188;28;19916;-57
2021/10/23 09:58:12;;;;;;;;;;;12.50;99.90;;;;;;5113173;28;19915;-56
2021/10/23 10:00:38;;;;;;;;;;;12.60;99.90;;;;;;5094653;28;19955;-56
2021/10/23 10:03:04;;;;;;;;;;;12.60;99.90;;;;;;5113163;28;19915;-56
2021/10/23 10:05:33;;;;;;;;;;;12.50;99.90;;;;;;5112879;28;20002;-56
2021/10/23 10:08:09;;;;;;;;;;;12.50;99.90;;;;;;5112993;28;19922;-56
2021/10/23 10:10:39;;;;;;;;;;;12.50;99.90;;;;;;5113131;28;19969;-56
2021/10/23 10:13:05;;;;;;;;;;;12.50;99.90;;;;;;5112711;28;19923;-56
2021/10/23 10:15:31;;;;;;;;;;;12.60;99.90;;;;;;5113030;28;20331;-56
2021/10/23 10:18:03;;;;;;;;;;;12.60;99.90;;;;;;5112871;28;19923;-57
2021/10/23 10:20:30;;;;;;;;;;;12.60;99.90;;;;;;5112846;28;19923;-56
2021/10/23 10:22:57;;;;;;;;;;;12.60;99.90;;;;;;5094350;28;20001;-56
2021/10/23 10:25:24;;;;;;;;;;;12.60;99.90;;;;;;5112602;28;19961;-56
2021/10/23 10:27:52;;;;;;;;;;;12.60;99.90;;;;;;5112816;28;19915;-56
2021/10/23 10:30:22;;;;;;;;;;;12.60;99.90;;;;;;5112480;28;20361;-56
2021/10/23 10:32:48;;;;;;;;;;;12.60;99.90;;;;;;5112695;28;20006;-56
2021/10/23 10:35:31;;;;;;;;;;;12.60;99.90;;;;;;5112441;28;20011;-55
2021/10/23 10:43:07;;;;;;;;;;;12.70;99.90;;;;;;5112788;28;19916;-56
2021/10/23 10:45:40;;;;;;;;;;;12.80;99.90;;;;;;5112747;28;19923;-55
2021/10/23 10:48:09;;;;;;;;;;;12.70;99.90;;;;;;5112354;28;20365;-57
2021/10/23 10:50:35;;;;;;;;;;;12.70;99.90;;;;;;5115602;28;19916;-56
2021/10/23 10:53:12;;;;;;;;;;;12.70;99.90;;;;;;5116895;28;19961;-57
2021/10/23 10:55:38;;;;;;;;;;;12.70;99.90;;;;;;5116852;28;19915;-56
2021/10/23 10:58:05;;;;;;;;;;;12.70;99.90;;;;;;5116634;28;19923;-56
2021/10/23 11:00:48;;;;;;;;;;;12.70;99.90;;;;;;5116550;28;19942;-56
2021/10/23 11:03:33;;;;;;;;;;;12.70;99.90;;;;;;5116543;28;19920;-56
2021/10/23 11:06:17;;;;;;;;;;;12.70;99.90;;;;;;5116478;28;19919;-56
2021/10/23 11:08:43;;;;;;;;;;;12.80;99.90;;;;;;5116830;28;19916;-55
2021/10/23 11:11:08;;;;;;;;;;;12.90;99.90;;;;;;5116217;28;20391;-56
2021/10/23 11:13:42;;;;;;;;;;;12.90;99.90;;;;;;5116397;28;19920;-56
2021/10/23 11:16:24;;;;;;;;;;;13.00;99.90;;;;;;5116359;28;19922;-56
2021/10/23 11:19:08;;;;;;;;;;;13.10;99.90;;;;;;5116447;28;19924;-56
2021/10/23 11:21:34;;;;;;;;;;;13.20;99.90;;;;;;5115899;28;19960;-56
2021/10/23 11:24:00;;;;;;;;;;;13.30;99.90;;;;;;5116289;28;20014;-56
2021/10/23 11:26:25;;;;;;;;;;;13.30;99.90;;;;;;5115991;28;19923;-56
2021/10/23 11:28:51;;;;;;;;;;;13.40;99.90;;;;;;5116084;28;19916;-55
2021/10/23 11:31:20;;;;;;;;;;;13.40;99.90;;;;;;5115979;28;20027;-56
2021/10/23 11:33:46;;;;;;;;;;;13.40;99.90;;;;;;5115973;28;20315;-56
2021/10/23 11:36:19;;;;;;;;;;;13.30;99.90;;;;;;5115650;28;19927;-56
2021/10/23 11:38:48;;;;;;;;;;;13.30;99.90;;;;;;5116059;28;19966;-56
2021/10/23 11:41:20;;;;;;;;;;;13.40;99.90;;;;;;5116181;28;19920;-56
2021/10/23 11:43:46;;;;;;;;;;;13.40;99.90;;;;;;5116186;28;20010;-56
2021/10/23 11:46:12;;;;;;;;;;;13.30;99.90;;;;;;5115616;28;20007;-56
2021/10/23 11:48:38;;;;;;;;;;;13.30;99.90;;;;;;5115471;28;20320;-56
2021/10/23 11:51:03;;;;;;;;;;;13.20;99.90;;;;;;5115814;28;19916;-56
2021/10/23 11:53:32;;;;;;;;;;;13.20;99.90;;;;;;5115685;28;19922;-56
2021/10/23 11:56:01;;;;;;;;;;;13.20;99.90;;;;;;5115519;28;19977;-55
2021/10/23 11:58:28;;;;;;;;;;;13.20;99.90;;;;;;5097363;28;19916;-56
2021/10/23 12:01:01;;;;;;;;;;;13.20;99.90;;;;;;5096406;28;19923;-56
2021/10/23 12:03:31;;;;;;;;;;;13.20;99.90;;;;;;5115335;28;19916;-56
2021/10/23 12:05:57;;;;;;;;;;;13.20;99.90;;;;;;5115511;28;19936;-56
2021/10/23 12:08:29;;;;;;;;;;;13.30;99.90;;;;;;5115204;28;19996;-56
2021/10/23 12:11:02;;;;;;;;;;;13.40;99.90;;;;;;5115239;28;19922;-56
2021/10/23 12:13:29;;;;;;;;;;;13.40;99.90;;;;;;5115179;28;19916;-56
2021/10/23 12:16:04;;;;;;;;;;;13.30;99.90;;;;;;5115144;28;20034;-56
2021/10/23 12:18:31;;;;;;;;;;;13.30;99.90;;;;;;5115062;28;19959;-56
2021/10/23 12:21:15;;;;;;;;;;;13.20;99.90;;;;;;5115041;28;19965;-56
2021/10/23 12:23:47;;;;;;;;;;;13.10;99.90;;;;;;5115080;28;19958;-56
2021/10/23 12:26:12;;;;;;;;;;;13.00;99.90;;;;;;5114911;28;19915;-56
2021/10/23 12:28:57;;;;;;;;;;;13.00;99.90;;;;;;5114951;28;20425;-56
2021/10/23 12:31:22;;;;;;;;;;;13.00;99.90;;;;;;5115188;28;20006;-56
2021/10/23 12:33:58;;;;;;;;;;;12.90;99.90;;;;;;5114820;28;20429;-56
2021/10/23 12:36:23;;;;;;;;;;;12.90;99.90;;;;;;5114598;28;20281;-56
2021/10/23 12:38:49;;;;;;;;;;;12.80;99.90;;;;;;5114393;28;19919;-56
2021/10/23 12:41:15;;;;;;;;;;;12.80;99.90;;;;;;5114634;28;20285;-55
2021/10/23 12:43:40;;;;;;;;;;;12.80;99.90;;;;;;5114725;28;19923;-55
2021/10/23 12:46:07;;;;;;;;;;;12.80;99.90;;;;;;5114401;28;20474;-55
2021/10/23 12:48:32;;;;;;;;;;;12.70;99.90;;;;;;5114495;28;20002;-56
2021/10/23 12:50:58;;;;;;;;;;;12.70;99.90;;;;;;5114368;28;20045;-55
2021/10/23 12:53:24;;;;;;;;;;;12.50;99.90;;;;;;5114359;28;19919;-56
2021/10/23 12:55:49;;;;;;;;;;;12.60;99.90;;;;;;5114455;28;19923;-56
2021/10/23 12:58:16;;;;;;;;;;;12.60;99.90;;;;;;5114402;28;20326;-56
2021/10/23 13:00:42;;;;;;;;;;;12.60;99.90;;;;;;5114208;28;19926;-56
2021/10/23 13:03:08;;;;;;;;;;;12.60;99.90;;;;;;5114355;28;19919;-55
2021/10/23 13:05:33;;;;;;;;;;;12.50;99.90;;;;;;5114405;28;19949;-56
2021/10/23 13:07:59;;;;;;;;;;;12.50;99.90;;;;;;5114040;28;19926;-56
2021/10/23 13:10:25;;;;;;;;;;;12.50;99.90;;;;;;5114134;28;19998;-56
2021/10/23 13:12:50;;;;;;;;;;;12.50;99.90;;;;;;5113743;28;20422;-56
2021/10/23 13:15:16;;;;;;;;;;;12.40;99.90;;;;;;5114332;28;19915;-55
2021/10/23 13:17:42;;;;;;;;;;;12.40;99.90;;;;;;5113849;28;20425;-56
2021/10/23 13:20:08;;;;;;;;;;;12.40;99.90;;;;;;5113661;28;19920;-55
2021/10/23 13:22:34;;;;;;;;;;;12.40;99.90;;;;;;5095540;28;19916;-56
2021/10/23 13:25:00;;;;;;;;;;;12.30;99.90;;;;;;5113831;28;19922;-56
2021/10/23 13:27:25;;;;;;;;;;;12.30;99.90;;;;;;5095406;28;19915;-56
2021/10/23 13:29:55;;;;;;;;;;;12.40;99.90;;;;;;5113601;28;20010;-56
2021/10/23 13:32:21;;;;;;;;;;;12.40;99.90;;;;;;5113492;28;19915;-56
2021/10/23 13:34:47;;;;;;;;;;;12.40;99.90;;;;;;5113269;28;20379;-57
2021/10/23 13:37:12;;;;;;;;;;;12.40;99.90;;;;;;5113386;28;19920;-57
2021/10/23 13:39:38;;;;;;;;;;;12.40;99.90;;;;;;5113620;28;20409;-56
2021/10/23 13:42:04;;;;;;;;;;;12.40;99.90;;;;;;5095111;28;19915;-56
2021/10/23 13:44:30;;;;;;;;;;;12.40;99.90;;;;;;5113464;28;19919;-56
2021/10/23 13:46:56;;;;;;;;;;;12.40;99.90;;;;;;5113360;28;19966;-56
2021/10/23 13:49:22;;;;;;;;;;;12.50;99.90;;;;;;5113112;28;19967;-56
2021/10/23 13:51:48;;;;;;;;;;;12.60;99.90;;;;;;5113216;28;20020;-57
2021/10/23 13:54:14;;;;;;;;;;;12.50;99.90;;;;;;5113395;28;20297;-57
2021/10/23 13:56:40;;;;;;;;;;;12.50;99.90;;;;;;5113531;28;19926;-56
2021/10/23 13:59:06;;;;;;;;;;;12.40;99.90;;;;;;5113309;28;20382;-56
2021/10/23 14:01:32;;;;;;;;;;;12.40;99.90;;;;;;5113078;28;19916;-56
2021/10/23 14:03:58;;;;;;;;;;;12.40;99.90;;;;;;5112939;28;19915;-56
2021/10/23 14:06:23;;;;;;;;;;;12.30;99.90;;;;;;5112938;28;20258;-57
2021/10/23 14:08:49;;;;;;;;;;;12.30;99.90;;;;;;5112988;28;19923;-56
2021/10/23 14:11:14;;;;;;;;;;;12.30;99.90;;;;;;5113087;28;19920;-56
2021/10/23 14:13:40;;;;;;;;;;;12.40;99.90;;;;;;5112990;28;19916;-56
2021/10/23 14:16:05;;;;;;;;;;;12.30;99.90;;;;;;5112915;28;19915;-57
2021/10/23 14:18:31;;;;;;;;;;;12.30;99.90;;;;;;5112842;28;19916;-57
2021/10/23 14:20:57;;;;;;;;;;;12.30;99.90;;;;;;5112668;28;19980;-56
2021/10/23 14:23:23;;;;;;;;;;;12.20;99.90;;;;;;5112942;28;20020;-56
2021/10/23 14:25:53;;;;;;;;;;;12.30;99.90;;;;;;5093595;28;20383;-57